CheckWX is a tool to help pilots better visualize weather data.  It is not intended as a substitute for an official pre-flight weather briefing.

06:55:14 UTC

KFVE TAF
Northern Aroostook Regional Airport
Frenchville, Maine, USA
KFVE 260521Z 2606/2706 33004KT P6SM SCT060 FM262300 04004KT P6SM BKN030

Feb-26@
06:00 UTC

Feb-26 @ 06:00 UTC

Feb-26@
23:00 UTC

Feb-26 @ 23:00 UTC

KFVE 260521Z 2606/2706 33004KT P6SM SCT060
Wind
  • 330° at 4 KTS
Cloud Levels
  • Scattered at 6,000' AGL

Feb-26@
23:00 UTC

Feb-26 @ 23:00 UTC

Feb-27@
06:00 UTC

Feb-27 @ 06:00 UTC

FM262300 04004KT P6SM BKN030

From

From Standard forecast or significant change

Wind
  • 040° at 4 KTS
Cloud Levels
  • Broken at 3,000' AGL